EKVD

Kolding Vamdrup Airport

Kolding / Vamdrup, Denmark
METAR EKVD 211250Z 27005KT 230V300 CAVOK 04/M04 Q1028
Observed Flight Rules
Feb-21 @ 12:50 UTC (30 minutes ago) Visual Flight Rules
Wind Visibility Clouds
270° at 5 knots 10,000+ meters
  • Clear skies
Temperatures Readings
Current 4°C / 39°F
Dewpoint -4°C / 25°F
Humidity 56%
Altimeter 30.35" Hg
Pressure 1028 hPa
Elevation 45
METAR EKVD 211250Z 27005KT 230V300 CAVOK 04/M04 Q1028
Observed Flight Rules
Feb-21 @ 12:50 UTC
(30 minutes ago)
VFR
Wind Visibility
270° at 5 knots 10,000+ meters
Clouds
  • Clear skies
Temperature Dewpoint
4°C / 39°F -4°C / 25°F
Humidity Altimeter Pressure
56% 30.35" Hg 1028 hPa